Terminal Aerodrome Forecast
Issued by NWS Jackson, KY

Home | Current Version | Previous Version | Text Only | Print | Product List | Glossary Off
Versions: 1 2 3 4 5 6 7 8 9 10 11 12 13 14 15 16 17 18

000
FTUS43 KJKL 030542
TAFJKL
TAF
KJKL 030542Z 0306/0406 VRB04KT P6SM SCT250
     FM030900 20006KT 5SM -DZ OVC040
     FM031500 20005KT 4SM -SHRA OVC007
     FM031900 20006KT 3SM SHRA VCTS FEW005 OVC010CB=

USA.gov is the U.S. government's official web portal to all federal, state and local government web resources and services.